Time;durP1;ratioP1;P1;durP2;ratioP2;P2;SDS_P1;SDS_P2;PMS_P1;PMS_P2;Temp;Humidity;BMP_temperature;BMP_pressure;BME280_temperature;BME280_humidity;BME280_pressure;Samples;Min_cycle;Max_cycle;Signal;HPM_P1;HPM_P2
2022/01/07 00:09:48;;;;;;;2.95;0.93;;;4.10;99.90;;;;;;20929683;28;20048;-45
2022/01/07 00:19:49;;;;;;;2.67;0.90;;;3.90;99.90;;;;;;20933702;28;20531;-45
2022/01/07 00:29:50;;;;;;;3.20;1.17;;;3.60;99.90;;;;;;20933800;28;20151;-45
2022/01/07 00:39:52;;;;;;;9.52;1.48;;;3.60;99.90;;;;;;20935851;28;20416;-45
2022/01/07 00:49:53;;;;;;;2.70;1.17;;;3.60;99.90;;;;;;20934538;28;20411;-45
2022/01/07 00:59:55;;;;;;;2.63;0.90;;;3.60;99.90;;;;;;20936323;28;20053;-45
2022/01/07 01:09:56;;;;;;;2.40;1.45;;;3.70;99.90;;;;;;20934395;28;21134;-45
2022/01/07 01:19:57;;;;;;;2.75;0.95;;;3.80;99.90;;;;;;20933263;28;20545;-45
2022/01/07 01:30:00;;;;;;;1.88;0.95;;;3.80;99.90;;;;;;20925642;28;20123;-45
2022/01/07 01:40:03;;;;;;;2.53;1.10;;;3.70;99.90;;;;;;20934181;28;20040;-45
2022/01/07 01:50:05;;;;;;;3.03;1.20;;;3.70;99.90;;;;;;20927907;28;20322;-45
2022/01/07 02:00:09;;;;;;;2.92;1.13;;;3.70;99.90;;;;;;20932886;28;20063;-45
2022/01/07 02:10:16;;;;;;;4.00;1.73;;;3.60;99.90;;;;;;20926139;28;20041;-45
2022/01/07 02:20:19;;;;;;;2.63;1.05;;;3.60;99.90;;;;;;20931764;28;20044;-45
2022/01/07 02:30:23;;;;;;;5.13;1.80;;;3.70;99.90;;;;;;20927316;28;20451;-45
2022/01/07 02:40:25;;;;;;;4.70;1.42;;;3.80;99.90;;;;;;20919038;28;20396;-45
2022/01/07 02:50:36;;;;;;;5.20;2.05;;;3.80;99.90;;;;;;20929803;28;20044;-45
2022/01/07 03:00:37;;;;;;;3.55;1.50;;;3.80;99.90;;;;;;20930866;28;20044;-45
2022/01/07 03:10:38;;;;;;;3.67;1.75;;;3.80;99.90;;;;;;20924350;28;20049;-45
2022/01/07 03:20:40;;;;;;;9.20;1.92;;;3.80;99.90;;;;;;20929917;28;21141;-45
2022/01/07 03:30:42;;;;;;;4.47;2.03;;;3.80;99.90;;;;;;20927049;28;20040;-45
2022/01/07 03:40:43;;;;;;;4.57;2.10;;;3.70;99.90;;;;;;20932139;28;20077;-45
2022/01/07 03:50:45;;;;;;;5.20;1.83;;;3.70;99.90;;;;;;20938120;28;20043;-45
2022/01/07 04:00:46;;;;;;;4.50;2.20;;;3.70;99.90;;;;;;20941612;28;20587;-45
2022/01/07 04:10:48;;;;;;;7.90;2.35;;;3.70;99.90;;;;;;20939472;28;20051;-45
2022/01/07 04:20:49;;;;;;;5.25;2.47;;;3.80;99.90;;;;;;20939977;28;20049;-45
2022/01/07 04:30:50;;;;;;;4.50;2.03;;;3.80;99.90;;;;;;20937882;28;20033;-45
2022/01/07 04:40:51;;;;;;;5.95;2.40;;;3.80;99.90;;;;;;20941179;28;20045;-45
2022/01/07 04:50:52;;;;;;;5.97;2.65;;;3.90;99.90;;;;;;20938859;28;20051;-45
2022/01/07 05:00:54;;;;;;;6.55;2.65;;;4.00;99.90;;;;;;20937554;28;20044;-45
2022/01/07 05:10:55;;;;;;;7.72;3.03;;;4.10;99.90;;;;;;20936921;28;20047;-45
2022/01/07 05:20:56;;;;;;;7.60;2.88;;;4.20;99.90;;;;;;20941719;28;20059;-45
2022/01/07 05:30:57;;;;;;;6.88;3.10;;;4.30;99.90;;;;;;20937993;28;20515;-45
2022/01/07 05:40:58;;;;;;;8.55;3.17;;;4.50;99.90;;;;;;20934195;28;20519;-45
2022/01/07 05:51:00;;;;;;;7.75;3.30;;;4.60;99.90;;;;;;20929396;28;20037;-45
2022/01/07 06:01:01;;;;;;;6.30;3.60;;;4.70;99.90;;;;;;20933182;28;22498;-45
2022/01/07 06:11:02;;;;;;;8.60;3.05;;;4.80;99.90;;;;;;20934688;28;20041;-45
2022/01/07 06:21:03;;;;;;;8.95;3.40;;;4.90;99.90;;;;;;20935243;28;20048;-45
2022/01/07 06:31:04;;;;;;;8.00;2.63;;;4.90;99.90;;;;;;20931482;28;20040;-45
2022/01/07 06:41:06;;;;;;;8.60;3.75;;;5.00;99.90;;;;;;20927769;28;20048;-45
2022/01/07 06:51:07;;;;;;;7.70;2.42;;;5.00;99.90;;;;;;20905482;28;20033;-45
2022/01/07 07:01:08;;;;;;;7.90;3.15;;;5.10;99.90;;;;;;20938378;28;20041;-45
2022/01/07 07:11:10;;;;;;;6.53;2.67;;;5.10;99.90;;;;;;20933237;28;20526;-45
2022/01/07 07:21:11;;;;;;;6.95;2.83;;;5.20;99.90;;;;;;20948119;28;20051;-45
2022/01/07 07:31:14;;;;;;;10.85;3.65;;;5.20;99.90;;;;;;20950560;28;20048;-45
2022/01/07 07:41:16;;;;;;;7.15;3.00;;;5.30;99.90;;;;;;20944023;28;20041;-45
2022/01/07 07:51:18;;;;;;;7.85;2.40;;;5.30;99.90;;;;;;20949442;28;20530;-45
2022/01/07 08:01:19;;;;;;;5.82;2.70;;;5.30;99.90;;;;;;20942550;28;21543;-45
2022/01/07 08:11:23;;;;;;;6.28;2.35;;;5.30;99.90;;;;;;20949158;28;20052;-45
2022/01/07 08:21:27;;;;;;;6.15;2.78;;;5.20;99.90;;;;;;20940170;28;20043;-45
2022/01/07 08:41:33;;;;;;;10.02;2.47;;;5.00;99.90;;;;;;20953064;28;20041;-45
2022/01/07 08:51:35;;;;;;;4.90;2.17;;;5.00;99.90;;;;;;20953815;28;20048;-45
2022/01/07 09:01:36;;;;;;;5.03;2.65;;;4.80;99.90;;;;;;20955529;28;20059;-44
2022/01/07 09:11:37;;;;;;;8.32;2.60;;;4.90;99.90;;;;;;20949897;28;20036;-45
2022/01/07 09:21:38;;;;;;;7.35;2.65;;;5.10;99.90;;;;;;20944246;28;20047;-45
2022/01/07 09:31:39;;;;;;;4.43;1.88;;;5.20;99.90;;;;;;20948505;28;20045;-45
2022/01/07 09:41:40;;;;;;;10.00;2.60;;;5.40;99.90;;;;;;20853940;28;20148;-45
2022/01/07 09:51:42;;;;;;;3.55;1.55;;;5.60;99.90;;;;;;20942755;28;20903;-45
2022/01/07 10:02:05;;;;;;;8.77;2.08;;;5.80;99.90;;;;;;20921576;28;20043;-45
2022/01/07 10:12:07;;;;;;;9.00;1.80;;;5.70;99.90;;;;;;20933343;28;20051;-45
2022/01/07 10:22:13;;;;;;;5.03;2.13;;;5.80;99.90;;;;;;20922025;28;20064;-45
2022/01/07 10:32:23;;;;;;;7.65;3.63;;;5.90;99.90;;;;;;20936558;28;20032;-45
2022/01/07 10:42:26;;;;;;;7.68;2.17;;;6.20;99.90;;;;;;20890513;28;20887;-45
2022/01/07 10:52:27;;;;;;;3.90;1.50;;;6.30;99.90;;;;;;20948587;28;20310;-45
2022/01/07 11:02:34;;;;;;;3.35;0.98;;;6.20;99.90;;;;;;20918014;28;20045;-45
2022/01/07 11:12:36;;;;;;;6.28;2.20;;;6.10;99.90;;;;;;20792046;28;20041;-45
2022/01/07 11:22:40;;;;;;;5.72;1.88;;;6.70;99.90;;;;;;20745773;28;20037;-45
2022/01/07 11:32:46;;;;;;;9.60;1.33;;;7.60;99.90;;;;;;20784389;28;20040;-45
2022/01/07 11:42:47;;;;;;;5.60;1.50;;;7.30;99.90;;;;;;20776052;28;20045;-45
2022/01/07 11:53:02;;;;;;;3.53;1.23;;;6.80;99.90;;;;;;20795443;28;20041;-45
2022/01/07 12:03:05;;;;;;;3.50;1.20;;;6.60;99.90;;;;;;20791052;28;20550;-45
2022/01/07 12:13:06;;;;;;;4.90;0.65;;;6.40;99.90;;;;;;20967540;28;20544;-45
2022/01/07 12:23:07;;;;;;;0.95;0.30;;;6.60;99.90;;;;;;20945633;28;20040;-45
2022/01/07 12:33:09;;;;;;;1.10;0.32;;;6.70;99.90;;;;;;20945874;28;20516;-45
2022/01/07 12:43:10;;;;;;;2.33;0.28;;;6.60;99.90;;;;;;20952238;28;20032;-45
2022/01/07 12:53:11;;;;;;;2.25;0.43;;;6.30;99.90;;;;;;20939513;28;21575;-45
2022/01/07 13:03:13;;;;;;;3.03;0.52;;;5.90;99.90;;;;;;20938471;28;20056;-45
2022/01/07 13:13:22;;;;;;;2.00;0.45;;;5.80;99.90;;;;;;20942047;28;20048;-45
2022/01/07 13:23:25;;;;;;;2.55;0.30;;;5.90;99.90;;;;;;20931520;28;20044;-45
2022/01/07 13:33:28;;;;;;;4.15;0.80;;;5.80;99.90;;;;;;20941391;28;20052;-45
2022/01/07 13:43:31;;;;;;;0.75;0.32;;;5.70;99.90;;;;;;20963364;28;21099;-45
2022/01/07 13:53:32;;;;;;;0.47;0.20;;;5.60;99.90;;;;;;20968144;28;20087;-46
2022/01/07 14:03:51;;;;;;;1.02;0.63;;;5.50;99.90;;;;;;20940966;28;20535;-45
2022/01/07 14:14:12;;;;;;;1.10;0.40;;;5.40;99.90;;;;;;20905163;28;20052;-45
2022/01/07 14:24:14;;;;;;;0.88;0.30;;;5.30;99.90;;;;;;20912781;28;20044;-45
2022/01/07 14:34:15;;;;;;;2.20;0.52;;;5.40;99.90;;;;;;20888363;28;20048;-45
2022/01/07 14:44:18;;;;;;;1.00;0.40;;;5.20;99.90;;;;;;20888352;28;20037;-45
2022/01/07 14:54:20;;;;;;;4.57;0.90;;;5.10;99.90;;;;;;20882002;28;20059;-45
2022/01/07 15:04:21;;;;;;;0.38;0.03;;;4.90;99.90;;;;;;20873553;28;20044;-45
2022/01/07 15:14:22;;;;;;;1.35;0.22;;;4.80;99.90;;;;;;20842990;28;20047;-45
2022/01/07 15:24:24;;;;;;;5.97;0.65;;;4.70;99.90;;;;;;20880663;28;20036;-45
2022/01/07 15:34:25;;;;;;;1.48;0.20;;;4.50;99.90;;;;;;20860467;28;20559;-45
2022/01/07 15:44:26;;;;;;;0.57;0.20;;;4.40;99.90;;;;;;20902372;28;20052;-45
2022/01/07 15:54:28;;;;;;;0.70;0.20;;;4.30;99.90;;;;;;20896664;28;20138;-45
2022/01/07 16:04:29;;;;;;;1.25;0.30;;;4.20;99.90;;;;;;20883457;28;20051;-45
2022/01/07 16:14:30;;;;;;;1.60;0.45;;;4.30;99.90;;;;;;20915588;28;20408;-45
2022/01/07 16:24:32;;;;;;;3.65;1.85;;;4.30;99.90;;;;;;20932075;28;20075;-45
2022/01/07 16:34:33;;;;;;;3.47;1.90;;;4.40;99.90;;;;;;20924661;28;20064;-45
2022/01/07 16:44:36;;;;;;;1.55;0.43;;;4.00;99.90;;;;;;20931411;28;20056;-45
2022/01/07 16:54:38;;;;;;;3.65;0.30;;;3.80;99.90;;;;;;20964093;28;20452;-45
2022/01/07 17:04:39;;;;;;;1.23;0.47;;;3.80;99.90;;;;;;20926684;28;20060;-45
2022/01/07 17:14:40;;;;;;;1.33;0.32;;;3.80;99.90;;;;;;20926969;28;20431;-45
2022/01/07 17:24:42;;;;;;;8.02;0.65;;;3.60;99.90;;;;;;20885966;28;20045;-44
2022/01/07 17:34:43;;;;;;;0.57;0.30;;;3.60;99.90;;;;;;20891514;28;20052;-45
2022/01/07 17:44:45;;;;;;;0.88;0.30;;;3.50;99.90;;;;;;20907993;28;20393;-45
2022/01/07 17:54:46;;;;;;;2.45;0.47;;;3.50;99.90;;;;;;20894727;28;20055;-44
2022/01/07 18:04:49;;;;;;;2.55;0.70;;;3.60;99.90;;;;;;20905042;28;20236;-45
2022/01/07 18:14:50;;;;;;;8.20;0.82;;;3.60;99.90;;;;;;20910505;28;20048;-45
2022/01/07 18:24:52;;;;;;;0.65;0.25;;;3.60;99.90;;;;;;20899534;28;20041;-45
2022/01/07 18:34:53;;;;;;;3.17;0.65;;;3.60;99.90;;;;;;20890616;28;20045;-45
2022/01/07 18:44:55;;;;;;;4.68;1.40;;;3.60;99.90;;;;;;20879072;28;20037;-44
2022/01/07 18:54:56;;;;;;;8.10;0.88;;;3.60;99.90;;;;;;20896735;28;20052;-47
2022/01/07 19:04:57;;;;;;;10.10;4.03;;;3.60;99.90;;;;;;20931405;28;20221;-45
2022/01/07 19:14:58;;;;;;;2.20;1.08;;;3.70;99.90;;;;;;20961084;28;20041;-45
2022/01/07 19:24:59;;;;;;;3.25;1.50;;;3.70;99.90;;;;;;20955796;28;20045;-44
2022/01/07 19:35:01;;;;;;;3.22;1.55;;;3.70;99.90;;;;;;20949845;28;20047;-45
2022/01/07 19:45:04;;;;;;;10.07;2.28;;;3.80;99.90;;;;;;20952742;28;20181;-45
2022/01/07 19:55:06;;;;;;;3.25;1.30;;;3.60;99.90;;;;;;20956639;28;20040;-45
2022/01/07 20:05:09;;;;;;;4.55;1.30;;;3.40;99.90;;;;;;20959601;28;20049;-44
2022/01/07 20:15:12;;;;;;;1.55;0.30;;;3.30;99.90;;;;;;20945564;28;20056;-45
2022/01/07 20:25:13;;;;;;;2.05;0.28;;;3.40;99.90;;;;;;20943459;28;20540;-45
2022/01/07 20:35:17;;;;;;;1.52;0.82;;;3.40;99.90;;;;;;20946387;28;20044;-45
2022/01/07 20:45:18;;;;;;;2.35;0.52;;;3.30;99.90;;;;;;20951345;28;20032;-45
2022/01/07 20:55:19;;;;;;;4.10;0.28;;;3.30;99.90;;;;;;20938208;28;20045;-45
2022/01/07 21:05:21;;;;;;;9.85;0.55;;;3.40;99.90;;;;;;20925301;28;20389;-45
2022/01/07 21:15:22;;;;;;;0.77;0.22;;;3.50;99.90;;;;;;20898690;28;20051;-45
2022/01/07 21:25:23;;;;;;;1.13;0.38;;;3.30;99.90;;;;;;20904033;28;20044;-45
2022/01/07 21:35:24;;;;;;;1.90;0.30;;;3.10;99.90;;;;;;20906747;28;20483;-45
2022/01/07 21:45:28;;;;;;;1.08;0.50;;;3.10;99.90;;;;;;20885508;28;20050;-44
2022/01/07 21:55:29;;;;;;;3.30;0.75;;;3.00;99.90;;;;;;20886393;28;20049;-44
2022/01/07 22:05:30;;;;;;;4.15;0.93;;;2.90;99.90;;;;;;20884468;28;20052;-44
2022/01/07 22:15:31;;;;;;;2.63;0.70;;;2.90;99.90;;;;;;20907580;28;20050;-44
2022/01/07 22:25:33;;;;;;;2.38;1.00;;;2.80;99.90;;;;;;20902919;28;20122;-44
2022/01/07 22:35:35;;;;;;;1.90;0.90;;;2.70;99.90;;;;;;20871012;28;20052;-44
2022/01/07 22:45:36;;;;;;;2.70;1.00;;;2.60;99.90;;;;;;20871072;28;20070;-45
2022/01/07 22:55:37;;;;;;;1.73;0.60;;;2.60;99.90;;;;;;20881779;28;20057;-45
2022/01/07 23:05:39;;;;;;;0.75;0.40;;;2.60;99.90;;;;;;20880608;28;22375;-45
2022/01/07 23:15:40;;;;;;;2.15;0.57;;;2.60;99.90;;;;;;20885669;28;20532;-44
2022/01/07 23:25:42;;;;;;;3.00;0.98;;;2.60;99.90;;;;;;20878480;28;20045;-45
2022/01/07 23:35:46;;;;;;;6.25;0.80;;;2.60;99.90;;;;;;20899626;28;20048;-45
2022/01/07 23:45:48;;;;;;;3.58;0.80;;;2.50;99.90;;;;;;20888520;28;20431;-44
2022/01/07 23:55:49;;;;;;;9.25;1.15;;;2.40;99.90;;;;;;20874798;28;20091;-45
